createdAt,value
2023-01-08T00:00:42.929Z,81.32
2023-01-08T00:01:42.842Z,81.43
2023-01-08T00:02:42.943Z,81.52
2023-01-08T00:03:42.943Z,81.43
2023-01-08T00:04:42.794Z,81.73
2023-01-08T00:05:42.785Z,81.43
2023-01-08T00:06:42.783Z,81.63
2023-01-08T00:07:42.753Z,81.52
2023-01-08T00:08:42.748Z,81.73
2023-01-08T00:09:42.737Z,81.52
2023-01-08T00:10:42.722Z,81.63
2023-01-08T00:11:42.720Z,81.73
2023-01-08T00:12:42.704Z,81.52
2023-01-08T00:13:42.681Z,81.73
2023-01-08T00:14:42.652Z,81.73
2023-01-08T00:15:42.657Z,81.84
2023-01-08T00:16:42.685Z,81.84
2023-01-08T00:17:42.626Z,81.84
2023-01-08T00:18:42.626Z,81.84
2023-01-08T00:19:42.608Z,81.98
2023-01-08T00:20:42.581Z,82.28
2023-01-08T00:21:42.575Z,82.14
2023-01-08T00:22:42.568Z,82.24
2023-01-08T00:23:42.557Z,82.04
2023-01-08T00:24:42.521Z,82.04
2023-01-08T00:25:42.531Z,82.14
2023-01-08T00:26:42.521Z,82.04
2023-01-08T00:27:42.493Z,82.35
2023-01-08T00:28:42.490Z,82.55
2023-01-08T00:29:42.503Z,82.69
2023-01-08T00:30:42.548Z,82.49
2023-01-08T00:31:42.471Z,82.76
2023-01-08T00:32:42.441Z,82.79
2023-01-08T00:33:42.412Z,82.65
2023-01-08T00:34:42.415Z,82.86
2023-01-08T00:35:42.392Z,83.00
2023-01-08T00:36:42.408Z,82.86
2023-01-08T00:37:42.379Z,82.86
2023-01-08T00:38:42.342Z,82.96
2023-01-08T00:39:42.352Z,83.06
2023-01-08T00:40:42.321Z,82.79
2023-01-08T00:41:42.319Z,83.00
2023-01-08T00:42:42.300Z,83.10
2023-01-08T00:43:42.280Z,83.20
2023-01-08T00:44:42.269Z,83.41
2023-01-08T00:45:42.294Z,83.51
2023-01-08T00:46:42.243Z,83.61
2023-01-08T00:47:42.251Z,83.61
2023-01-08T00:48:42.208Z,83.41
2023-01-08T00:49:42.205Z,83.37
2023-01-08T00:50:42.194Z,83.27
2023-01-08T00:51:42.181Z,83.61
2023-01-08T00:52:42.186Z,83.61
2023-01-08T00:53:42.148Z,83.61
2023-01-08T00:54:42.147Z,83.72
2023-01-08T00:55:42.139Z,83.72
2023-01-08T00:56:42.107Z,83.72
2023-01-08T00:57:42.149Z,83.27
2023-01-08T00:58:42.085Z,83.37
2023-01-08T00:59:42.105Z,83.27
2023-01-08T01:00:42.058Z,83.06
2023-01-08T01:01:42.192Z,82.65
2023-01-08T01:02:42.050Z,82.76
2023-01-08T01:03:42.028Z,82.86
2023-01-08T01:04:42.017Z,82.71
2023-01-08T01:05:41.996Z,82.62
2023-01-08T01:06:41.986Z,82.62
2023-01-08T01:07:41.992Z,82.71
2023-01-08T01:08:41.967Z,83.03
2023-01-08T01:09:41.966Z,83.06
2023-01-08T01:10:41.925Z,83.17
2023-01-08T01:11:41.927Z,83.47
2023-01-08T01:12:41.934Z,83.37
2023-01-08T01:13:41.973Z,83.27
2023-01-08T01:14:41.893Z,83.58
2023-01-08T01:15:41.882Z,83.47
2023-01-08T01:16:41.961Z,83.37
2023-01-08T01:17:41.877Z,83.37
2023-01-08T01:18:41.849Z,83.47
2023-01-08T01:19:41.824Z,83.47
2023-01-08T01:20:41.805Z,83.37
2023-01-08T01:21:41.804Z,83.58
2023-01-08T01:22:41.785Z,83.68
2023-01-08T01:23:41.800Z,83.58
2023-01-08T01:24:41.771Z,83.58
2023-01-08T01:25:43.355Z,83.88
2023-01-08T01:26:41.733Z,83.68
2023-01-08T01:27:41.735Z,83.68
2023-01-08T01:28:41.695Z,83.58
2023-01-08T01:29:41.702Z,83.68
2023-01-08T01:30:41.684Z,83.58
2023-01-08T01:31:41.675Z,83.68
2023-01-08T01:32:41.709Z,83.47
2023-01-08T01:33:41.646Z,83.27
2023-01-08T01:34:41.637Z,83.17
2023-01-08T01:35:41.612Z,83.17
2023-01-08T01:36:41.603Z,83.06
2023-01-08T01:37:41.617Z,83.37
2023-01-08T01:38:41.571Z,83.27
2023-01-08T01:39:41.569Z,83.37
2023-01-08T01:40:41.576Z,83.37
2023-01-08T01:41:41.531Z,83.37
2023-01-08T01:42:41.557Z,83.47
2023-01-08T01:43:41.513Z,83.78
2023-01-08T01:44:41.489Z,83.88
2023-01-08T01:45:41.500Z,83.98
2023-01-08T01:46:41.471Z,84.09
2023-01-08T01:47:41.480Z,84.23
2023-01-08T01:48:48.948Z,84.44
2023-01-08T01:49:48.945Z,84.53
2023-01-08T01:50:41.416Z,84.64
2023-01-08T01:51:48.929Z,84.44
2023-01-08T01:52:41.413Z,84.09
2023-01-08T01:53:41.375Z,84.39
2023-01-08T01:54:41.371Z,84.29
2023-01-08T01:55:41.372Z,84.09
2023-01-08T01:56:41.339Z,83.88
2023-01-08T01:57:41.368Z,83.88
2023-01-08T01:58:41.329Z,83.98
2023-01-08T01:59:41.322Z,83.78
2023-01-08T02:00:41.312Z,83.78
2023-01-08T02:01:41.434Z,83.68
2023-01-08T02:02:41.319Z,83.68
2023-01-08T02:03:41.302Z,83.68
2023-01-08T02:04:41.228Z,83.68
2023-01-08T02:05:41.230Z,83.58
2023-01-08T02:06:41.219Z,83.44
2023-01-08T02:07:41.226Z,83.58
2023-01-08T02:08:41.177Z,83.68
2023-01-08T02:09:41.176Z,83.78
2023-01-08T02:10:41.156Z,84.09
2023-01-08T02:11:41.137Z,84.09
2023-01-08T02:12:41.150Z,83.98
2023-01-08T02:13:41.124Z,83.98
2023-01-08T02:14:41.107Z,83.98
2023-01-08T02:15:41.097Z,83.88
2023-01-08T02:16:41.140Z,83.88
2023-01-08T02:17:41.071Z,83.88
2023-01-08T02:18:41.054Z,83.54
2023-01-08T02:19:41.040Z,83.44
2023-01-08T02:20:41.049Z,83.68
2023-01-08T02:21:41.026Z,83.58
2023-01-08T02:22:41.024Z,83.88
2023-01-08T02:23:41.005Z,83.58
2023-01-08T02:24:40.993Z,83.68
2023-01-08T02:25:40.965Z,83.78
2023-01-08T02:26:40.957Z,83.68
2023-01-08T02:27:40.954Z,83.88
2023-01-08T02:28:40.914Z,84.09
2023-01-08T02:29:40.911Z,84.09
2023-01-08T02:30:40.968Z,84.19
2023-01-08T02:31:40.886Z,84.29
2023-01-08T02:32:40.894Z,84.50
2023-01-08T02:33:40.861Z,84.50
2023-01-08T02:34:40.851Z,84.70
2023-01-08T02:35:40.842Z,84.50
2023-01-08T02:36:40.822Z,84.70
2023-01-08T02:37:40.833Z,84.39
2023-01-08T02:38:40.791Z,84.29
2023-01-08T02:39:40.795Z,84.29
2023-01-08T02:40:40.768Z,84.39
2023-01-08T02:41:40.762Z,84.60
2023-01-08T02:42:40.752Z,84.39
2023-01-08T02:43:40.749Z,84.39
2023-01-08T02:44:40.711Z,84.15
2023-01-08T02:45:40.739Z,83.54
2023-01-08T02:46:40.700Z,83.64
2023-01-08T02:47:40.690Z,83.33
2023-01-08T02:48:40.671Z,83.54
2023-01-08T02:49:40.652Z,83.54
2023-01-08T02:50:40.649Z,83.64
2023-01-08T02:51:40.614Z,83.64
2023-01-08T02:52:40.623Z,83.84
2023-01-08T02:53:40.604Z,84.15
2023-01-08T02:54:40.591Z,84.25
2023-01-08T02:55:40.575Z,84.29
2023-01-08T02:56:40.563Z,84.29
2023-01-08T02:57:40.562Z,84.39
2023-01-08T02:58:40.540Z,84.29
2023-01-08T02:59:40.520Z,84.50
2023-01-08T03:00:40.516Z,84.50
2023-01-08T03:01:40.568Z,84.70
2023-01-08T03:02:40.505Z,84.60
2023-01-08T03:03:40.460Z,84.70
2023-01-08T03:04:40.542Z,84.91
2023-01-08T03:05:40.439Z,84.60
2023-01-08T03:06:40.433Z,84.80
2023-01-08T03:07:40.429Z,84.70
2023-01-08T03:08:40.415Z,84.66
2023-01-08T03:09:40.444Z,84.66
2023-01-08T03:10:40.380Z,84.66
2023-01-08T03:11:40.365Z,84.80
2023-01-08T03:12:40.370Z,84.80
2023-01-08T03:13:40.327Z,85.01
2023-01-08T03:14:40.341Z,84.70
2023-01-08T03:15:40.318Z,84.87
2023-01-08T03:16:40.332Z,84.66
2023-01-08T03:17:40.303Z,84.77
2023-01-08T03:18:40.273Z,84.77
2023-01-08T03:19:40.278Z,84.66
2023-01-08T03:20:40.251Z,84.77
2023-01-08T03:21:40.240Z,84.66
2023-01-08T03:22:40.267Z,84.66
2023-01-08T03:23:40.236Z,84.77
2023-01-08T03:24:40.198Z,84.56
2023-01-08T03:25:40.191Z,84.56
2023-01-08T03:26:40.179Z,84.46
2023-01-08T03:27:40.173Z,84.36
2023-01-08T03:28:40.160Z,84.56
2023-01-08T03:29:40.129Z,84.56
2023-01-08T03:30:40.140Z,84.77
2023-01-08T03:31:40.099Z,84.56
2023-01-08T03:32:40.097Z,84.56
2023-01-08T03:33:40.103Z,84.56
2023-01-08T03:34:41.260Z,84.66
2023-01-08T03:35:40.067Z,84.87
2023-01-08T03:36:40.036Z,84.66
2023-01-08T03:37:40.036Z,84.87
2023-01-08T03:38:40.039Z,84.97
2023-01-08T03:39:39.997Z,84.66
2023-01-08T03:40:39.991Z,84.77
2023-01-08T03:41:39.981Z,84.63
2023-01-08T03:42:39.988Z,84.52
2023-01-08T03:43:39.959Z,84.63
2023-01-08T03:44:39.947Z,84.63
2023-01-08T03:45:39.919Z,84.42
2023-01-08T03:46:39.919Z,84.52
2023-01-08T03:47:39.911Z,84.63
2023-01-08T03:48:39.900Z,84.63
2023-01-08T03:49:39.872Z,84.83
2023-01-08T03:50:39.898Z,84.63
2023-01-08T03:51:39.845Z,84.72
2023-01-08T03:52:39.826Z,84.83
2023-01-08T03:53:39.825Z,84.83
2023-01-08T03:54:39.803Z,84.72
2023-01-08T03:55:39.800Z,84.83
2023-01-08T03:56:39.804Z,84.83
2023-01-08T03:57:39.782Z,84.72
2023-01-08T03:58:39.785Z,84.93
2023-01-08T03:59:39.726Z,84.83
2023-01-08T04:00:39.728Z,85.03
2023-01-08T04:01:39.794Z,85.24
2023-01-08T04:02:39.746Z,85.24
2023-01-08T04:03:39.710Z,85.34
2023-01-08T04:04:39.726Z,85.24
2023-01-08T04:05:39.649Z,85.14
2023-01-08T04:06:39.645Z,85.24
2023-01-08T04:07:39.637Z,85.14
2023-01-08T04:08:39.646Z,85.03
2023-01-08T04:09:39.604Z,85.03
2023-01-08T04:10:39.603Z,85.14
2023-01-08T04:11:39.584Z,84.93
2023-01-08T04:12:39.575Z,85.14
2023-01-08T04:13:39.577Z,85.14
2023-01-08T04:14:39.533Z,85.34
2023-01-08T04:15:39.561Z,85.34
2023-01-08T04:16:39.534Z,85.34
2023-01-08T04:17:39.538Z,85.44
2023-01-08T04:18:39.512Z,85.85
2023-01-08T04:19:39.504Z,85.55
2023-01-08T04:20:39.507Z,85.55
2023-01-08T04:21:39.454Z,85.64
2023-01-08T04:22:39.445Z,85.75
2023-01-08T04:23:39.444Z,85.64
2023-01-08T04:24:39.421Z,85.64
2023-01-08T04:25:39.415Z,85.96
2023-01-08T04:26:39.400Z,85.96
2023-01-08T04:27:39.372Z,85.75
2023-01-08T04:28:39.423Z,85.75
2023-01-08T04:29:39.365Z,86.20
2023-01-08T04:30:39.364Z,86.20
2023-01-08T04:31:39.323Z,86.20
2023-01-08T04:32:39.325Z,86.51
2023-01-08T04:33:39.311Z,86.20
2023-01-08T04:34:39.295Z,86.30
2023-01-08T04:35:39.285Z,86.30
2023-01-08T04:36:39.261Z,86.40
2023-01-08T04:37:39.270Z,86.20
2023-01-08T04:38:39.241Z,86.26
2023-01-08T04:39:39.209Z,86.30
2023-01-08T04:40:39.213Z,86.40
2023-01-08T04:41:39.190Z,86.40
2023-01-08T04:42:39.181Z,86.51
2023-01-08T04:43:39.183Z,86.61
2023-01-08T04:44:39.176Z,86.71
2023-01-08T04:45:39.147Z,86.71
2023-01-08T04:46:39.261Z,86.71
2023-01-08T04:47:39.114Z,86.81
2023-01-08T04:48:39.125Z,86.81
2023-01-08T04:49:39.147Z,86.81
2023-01-08T04:50:39.076Z,87.12
2023-01-08T04:51:39.061Z,87.43
2023-01-08T04:52:39.048Z,87.53
2023-01-08T04:53:39.039Z,87.43
2023-01-08T04:54:39.069Z,87.43
2023-01-08T04:55:39.819Z,87.43
2023-01-08T04:56:39.024Z,87.43
2023-01-08T04:57:39.020Z,87.32
2023-01-08T04:58:38.998Z,87.32
2023-01-08T04:59:38.953Z,87.32
2023-01-08T05:00:38.939Z,87.43
2023-01-08T05:01:39.031Z,87.53
2023-01-08T05:02:39.115Z,87.43
2023-01-08T05:03:38.919Z,87.43
2023-01-08T05:04:38.903Z,87.73
2023-01-08T05:05:38.883Z,87.84
2023-01-08T05:06:38.878Z,87.94
2023-01-08T05:07:38.861Z,87.84
2023-01-08T05:08:38.842Z,88.04
2023-01-08T05:09:38.832Z,88.14
2023-01-08T05:10:38.816Z,88.29
2023-01-08T05:11:38.803Z,88.14
2023-01-08T05:12:38.787Z,88.14
2023-01-08T05:13:38.801Z,87.94
2023-01-08T05:14:38.759Z,87.94
2023-01-08T05:15:38.812Z,88.14
2023-01-08T05:16:38.745Z,88.04
2023-01-08T05:17:38.727Z,88.04
2023-01-08T05:18:38.779Z,88.04
2023-01-08T05:19:38.720Z,87.73
2023-01-08T05:20:38.689Z,87.73
2023-01-08T05:21:38.674Z,87.49
2023-01-08T05:22:38.678Z,87.18
2023-01-08T05:23:38.645Z,86.88
2023-01-08T05:24:38.628Z,86.88
2023-01-08T05:25:38.605Z,86.88
2023-01-08T05:26:38.613Z,86.98
2023-01-08T05:27:38.592Z,86.88
2023-01-08T05:28:38.593Z,86.88
2023-01-08T05:29:38.557Z,86.88
2023-01-08T05:30:38.545Z,87.08
2023-01-08T05:31:38.539Z,87.08
2023-01-08T05:32:38.544Z,87.18
2023-01-08T05:33:38.515Z,87.18
2023-01-08T05:34:38.507Z,87.08
2023-01-08T05:35:38.487Z,86.98
2023-01-08T05:36:38.476Z,87.18
2023-01-08T05:37:38.464Z,87.08
2023-01-08T05:38:38.469Z,87.08
2023-01-08T05:39:38.435Z,86.98
2023-01-08T05:40:38.426Z,87.18
2023-01-08T05:41:38.396Z,86.98
2023-01-08T05:42:38.404Z,87.08
2023-01-08T05:43:38.384Z,87.29
2023-01-08T05:44:38.395Z,87.29
2023-01-08T05:45:38.353Z,87.38
2023-01-08T05:46:38.426Z,87.63
2023-01-08T05:47:38.587Z,87.59
2023-01-08T05:48:38.362Z,87.49
2023-01-08T05:49:38.307Z,87.59
2023-01-08T05:50:38.301Z,87.59
2023-01-08T05:51:38.277Z,87.53
2023-01-08T05:52:38.273Z,87.63
2023-01-08T05:53:38.253Z,87.73
2023-01-08T05:54:38.242Z,87.73
2023-01-08T05:55:38.213Z,88.04
2023-01-08T05:56:38.224Z,88.14
2023-01-08T05:57:38.213Z,88.14
2023-01-08T05:58:38.215Z,87.94
2023-01-08T05:59:38.193Z,88.04
2023-01-08T06:00:38.153Z,88.14
2023-01-08T06:01:38.201Z,88.14
2023-01-08T06:02:38.209Z,88.14
2023-01-08T06:03:38.151Z,88.35
2023-01-08T06:04:38.145Z,88.35
2023-01-08T06:05:38.106Z,88.45
2023-01-08T06:06:38.079Z,88.56
2023-01-08T06:07:38.078Z,88.45
2023-01-08T06:08:38.082Z,88.35
2023-01-08T06:09:38.054Z,88.31
2023-01-08T06:10:38.033Z,88.31
2023-01-08T06:11:38.020Z,88.20
2023-01-08T06:12:38.000Z,88.31
2023-01-08T06:13:38.154Z,88.51
2023-01-08T06:14:37.987Z,88.56
2023-01-08T06:15:38.054Z,88.62
2023-01-08T06:16:37.945Z,88.51
2023-01-08T06:17:37.944Z,88.62
2023-01-08T06:18:37.929Z,88.71
2023-01-08T06:19:37.920Z,89.03
2023-01-08T06:20:37.892Z,89.03
2023-01-08T06:21:37.918Z,89.03
2023-01-08T06:22:37.899Z,89.23
2023-01-08T06:23:37.884Z,89.37
2023-01-08T06:24:37.855Z,89.58
2023-01-08T06:25:37.829Z,89.23
2023-01-08T06:26:37.811Z,89.12
2023-01-08T06:27:40.414Z,89.33
2023-01-08T06:28:37.809Z,89.12
2023-01-08T06:29:37.804Z,89.43
2023-01-08T06:30:37.761Z,89.84
2023-01-08T06:31:37.791Z,90.45
2023-01-08T06:32:37.750Z,90.81
2023-01-08T06:33:37.743Z,90.81
2023-01-08T06:34:37.835Z,91.52
2023-01-08T06:35:37.691Z,91.11
2023-01-08T06:36:37.745Z,91.52
2023-01-08T06:37:37.701Z,92.03
2023-01-08T06:38:37.681Z,92.03
2023-01-08T06:39:37.656Z,92.14
2023-01-08T06:40:37.619Z,92.65
2023-01-08T06:41:37.626Z,92.75
2023-01-08T06:42:37.604Z,93.20
2023-01-08T06:43:37.604Z,94.02
2023-01-08T06:44:37.637Z,94.64
2023-01-08T06:45:37.579Z,95.05
2023-01-08T06:46:37.590Z,94.84
2023-01-08T06:47:37.549Z,95.29
2023-01-08T06:48:37.536Z,95.09
2023-01-08T06:49:37.537Z,95.61
2023-01-08T06:50:37.523Z,95.81
2023-01-08T06:51:37.509Z,96.12
2023-01-08T06:52:37.481Z,96.42
2023-01-08T06:53:37.457Z,96.63
2023-01-08T06:54:37.467Z,96.83
2023-01-08T06:55:37.458Z,96.94
2023-01-08T06:56:52.303Z,97.14
2023-01-08T06:57:38.419Z,97.34
2023-01-08T06:58:37.395Z,97.39
2023-01-08T06:59:37.408Z,97.60
2023-01-08T07:00:37.405Z,97.80
2023-01-08T07:01:37.431Z,98.21
2023-01-08T07:02:37.493Z,98.52
2023-01-08T07:03:37.420Z,98.72
2023-01-08T07:04:37.316Z,98.42
2023-01-08T07:05:37.324Z,98.72
2023-01-08T07:06:37.295Z,99.03
2023-01-08T07:07:37.271Z,98.67
2023-01-08T07:08:37.277Z,99.18
2023-01-08T07:09:37.267Z,99.18
2023-01-08T07:10:37.236Z,99.49
2023-01-08T07:11:37.229Z,99.38
2023-01-08T07:12:37.219Z,99.69
2023-01-08T07:13:37.199Z,99.79
2023-01-08T07:14:37.195Z,99.99
2023-01-08T07:15:37.251Z,99.99
2023-01-08T07:16:37.143Z,99.99
2023-01-08T07:17:37.146Z,99.99
2023-01-08T07:18:37.125Z,99.99
2023-01-08T07:19:37.134Z,99.99
2023-01-08T07:20:37.101Z,99.99
2023-01-08T07:21:37.107Z,99.99
2023-01-08T07:22:37.062Z,99.99
2023-01-08T07:23:37.080Z,99.99
2023-01-08T07:24:37.070Z,99.99
2023-01-08T07:25:37.036Z,99.99
2023-01-08T07:26:37.046Z,99.99
2023-01-08T07:27:37.003Z,99.99
2023-01-08T07:28:37.012Z,99.99
2023-01-08T07:29:36.986Z,99.99
2023-01-08T07:30:37.012Z,99.99
2023-01-08T07:31:37.014Z,99.99
2023-01-08T07:32:36.958Z,99.99
2023-01-08T07:33:36.929Z,99.99
2023-01-08T07:34:36.922Z,99.99
2023-01-08T07:35:36.917Z,99.99
2023-01-08T07:36:36.891Z,99.99
2023-01-08T07:37:36.890Z,99.99
2023-01-08T07:38:36.878Z,99.99
2023-01-08T07:39:36.861Z,99.99
2023-01-08T07:40:39.151Z,99.99
2023-01-08T07:41:36.833Z,99.99
2023-01-08T07:42:36.817Z,99.99
2023-01-08T07:43:36.830Z,99.99
2023-01-08T07:44:36.788Z,99.99
2023-01-08T07:45:36.792Z,99.99
2023-01-08T07:46:36.768Z,99.99
2023-01-08T07:47:36.753Z,99.99
2023-01-08T07:48:36.729Z,99.99
2023-01-08T07:49:36.737Z,99.99
2023-01-08T07:50:36.721Z,99.99
2023-01-08T07:51:36.702Z,99.99
2023-01-08T07:52:36.750Z,99.99
2023-01-08T07:53:36.695Z,99.99
2023-01-08T07:54:36.672Z,99.99
2023-01-08T07:55:36.658Z,99.99
2023-01-08T07:56:36.619Z,99.99
2023-01-08T07:57:36.615Z,99.99
2023-01-08T07:58:36.613Z,99.99
2023-01-08T07:59:36.608Z,99.99
2023-01-08T08:00:36.588Z,99.99
2023-01-08T08:01:36.672Z,99.99
2023-01-08T08:02:36.718Z,99.99
2023-01-08T08:03:36.614Z,99.99
2023-01-08T08:04:36.537Z,99.99
2023-01-08T08:05:36.519Z,99.99
2023-01-08T08:06:36.524Z,99.99
2023-01-08T08:07:36.648Z,99.99
2023-01-08T08:08:36.479Z,99.99
2023-01-08T08:09:36.572Z,99.99
2023-01-08T08:10:36.431Z,99.99
2023-01-08T08:11:36.462Z,99.99
2023-01-08T08:12:36.504Z,99.99
2023-01-08T08:13:36.448Z,99.99
2023-01-08T08:14:36.410Z,99.99
2023-01-08T08:15:36.416Z,99.99
2023-01-08T08:16:36.364Z,99.99
2023-01-08T08:17:36.360Z,99.99
2023-01-08T08:18:36.339Z,99.99
2023-01-08T08:19:36.345Z,99.99
2023-01-08T08:20:36.335Z,99.99
2023-01-08T08:21:36.297Z,99.99
2023-01-08T08:22:36.290Z,99.99
2023-01-08T08:23:36.893Z,99.99
2023-01-08T08:24:36.300Z,99.99
2023-01-08T08:25:36.282Z,99.99
2023-01-08T08:26:36.226Z,99.99
2023-01-08T08:27:36.225Z,99.99
2023-01-08T08:28:36.237Z,99.99
2023-01-08T08:29:36.229Z,99.99
2023-01-08T08:30:36.193Z,99.99
2023-01-08T08:31:36.247Z,99.99
2023-01-08T08:32:36.174Z,99.99
2023-01-08T08:33:36.156Z,99.99
2023-01-08T08:34:36.149Z,99.99
2023-01-08T08:35:36.129Z,99.99
2023-01-08T08:36:36.119Z,99.99
2023-01-08T08:37:36.084Z,99.99
2023-01-08T08:38:36.085Z,99.99
2023-01-08T08:39:36.079Z,99.99
2023-01-08T08:40:36.055Z,99.99
2023-01-08T08:41:36.036Z,99.99
2023-01-08T08:42:36.035Z,99.99
2023-01-08T08:43:36.033Z,99.99
2023-01-08T08:44:36.041Z,99.99
2023-01-08T08:45:36.004Z,99.99
2023-01-08T08:46:36.037Z,99.99
2023-01-08T08:47:35.979Z,99.99
2023-01-08T08:48:35.991Z,99.99
2023-01-08T08:49:35.962Z,99.99
2023-01-08T08:50:35.939Z,99.99
2023-01-08T08:51:35.969Z,99.99
2023-01-08T08:52:35.886Z,99.99
2023-01-08T08:53:35.901Z,99.99
2023-01-08T08:54:35.895Z,99.99
2023-01-08T08:55:35.873Z,99.99
2023-01-08T08:56:35.859Z,99.99
2023-01-08T08:57:35.837Z,99.99
2023-01-08T08:58:35.835Z,99.99
2023-01-08T08:59:35.821Z,99.99
2023-01-08T09:00:35.795Z,99.99
2023-01-08T09:01:35.911Z,99.99
2023-01-08T09:02:35.994Z,99.99
2023-01-08T09:03:35.780Z,99.99
2023-01-08T09:04:35.758Z,99.99
2023-01-08T09:05:35.720Z,99.99
2023-01-08T09:06:35.727Z,99.99
2023-01-08T09:07:35.709Z,99.99
2023-01-08T09:08:35.703Z,99.99
2023-01-08T09:09:35.682Z,99.99
2023-01-08T09:10:35.649Z,99.99
2023-01-08T09:11:35.641Z,99.99
2023-01-08T09:12:35.623Z,99.99
2023-01-08T09:13:35.647Z,99.99
2023-01-08T09:14:35.612Z,99.99
2023-01-08T09:15:35.606Z,99.99
2023-01-08T09:16:35.609Z,99.99
2023-01-08T09:17:35.559Z,99.99
2023-01-08T09:18:35.562Z,99.99
2023-01-08T09:19:35.583Z,99.99
2023-01-08T09:20:35.549Z,99.99
2023-01-08T09:21:35.536Z,99.99
2023-01-08T09:22:35.527Z,99.99
2023-01-08T09:23:35.532Z,99.99
2023-01-08T09:24:35.529Z,99.99
2023-01-08T09:25:35.489Z,99.99
2023-01-08T09:26:35.458Z,99.99
2023-01-08T09:27:35.437Z,99.99
2023-01-08T09:28:35.443Z,99.99
2023-01-08T09:29:35.441Z,99.99
2023-01-08T09:30:35.390Z,99.99
2023-01-08T09:31:35.428Z,99.99
2023-01-08T09:32:35.377Z,99.99
2023-01-08T09:33:35.355Z,99.99
2023-01-08T09:34:35.358Z,99.99
2023-01-08T09:35:35.339Z,99.99
2023-01-08T09:36:35.319Z,99.99
2023-01-08T09:37:35.304Z,99.99
2023-01-08T09:38:35.277Z,99.99
2023-01-08T09:39:35.284Z,99.99
2023-01-08T09:40:35.259Z,99.99
2023-01-08T09:41:35.316Z,99.99
2023-01-08T09:42:35.239Z,99.99
2023-01-08T09:43:35.234Z,99.99
2023-01-08T09:44:35.229Z,99.99
2023-01-08T09:45:35.200Z,99.99
2023-01-08T09:46:35.236Z,99.99
2023-01-08T09:47:35.180Z,99.99
2023-01-08T09:48:35.160Z,99.99
2023-01-08T09:49:35.147Z,99.99
2023-01-08T09:50:35.152Z,99.99
2023-01-08T09:51:35.120Z,99.99
2023-01-08T09:52:35.107Z,99.99
2023-01-08T09:53:35.107Z,99.99
2023-01-08T09:54:35.083Z,99.99
2023-01-08T09:55:35.088Z,99.99
2023-01-08T09:56:35.054Z,99.99
2023-01-08T09:57:35.056Z,99.99
2023-01-08T09:58:35.016Z,99.99
2023-01-08T09:59:35.009Z,99.99
2023-01-08T10:00:35.080Z,99.99
2023-01-08T10:01:35.212Z,99.99
2023-01-08T10:02:35.110Z,99.99
2023-01-08T10:03:34.965Z,99.99
2023-01-08T10:04:34.941Z,99.99
2023-01-08T10:05:34.958Z,99.99
2023-01-08T10:06:34.913Z,99.99
2023-01-08T10:07:34.905Z,99.99
2023-01-08T10:08:34.891Z,99.99
2023-01-08T10:09:34.878Z,99.99
2023-01-08T10:10:34.873Z,99.99
2023-01-08T10:11:34.887Z,99.99
2023-01-08T10:12:34.846Z,99.99
2023-01-08T10:13:34.849Z,99.99
2023-01-08T10:14:34.832Z,99.99
2023-01-08T10:15:34.811Z,99.99
2023-01-08T10:16:34.797Z,99.99
2023-01-08T10:17:34.770Z,99.99
2023-01-08T10:18:34.753Z,99.99
2023-01-08T10:19:34.736Z,99.99
2023-01-08T10:20:34.753Z,99.99
2023-01-08T10:21:34.718Z,99.99
2023-01-08T10:22:34.705Z,99.99
2023-01-08T10:23:34.692Z,99.99
2023-01-08T10:24:34.683Z,99.99
2023-01-08T10:25:34.682Z,99.99
2023-01-08T10:26:34.643Z,99.99
2023-01-08T10:27:34.628Z,99.99
2023-01-08T10:28:34.616Z,99.99
2023-01-08T10:29:34.601Z,99.99
2023-01-08T10:30:34.607Z,99.99
2023-01-08T10:31:34.614Z,99.99
2023-01-08T10:32:34.611Z,99.99
2023-01-08T10:33:34.555Z,99.99
2023-01-08T10:34:34.551Z,99.99
2023-01-08T10:35:34.521Z,99.99
2023-01-08T10:36:34.510Z,99.99
2023-01-08T10:37:34.491Z,99.99
2023-01-08T10:38:34.480Z,99.99
2023-01-08T10:39:34.500Z,99.99
2023-01-08T10:40:34.460Z,99.99
2023-01-08T10:41:34.433Z,99.99
2023-01-08T10:42:34.433Z,99.99
2023-01-08T10:43:34.428Z,99.99
2023-01-08T10:44:34.402Z,99.99
2023-01-08T10:45:34.455Z,99.99
2023-01-08T10:46:34.419Z,99.99
2023-01-08T10:47:34.360Z,99.99
2023-01-08T10:48:34.363Z,99.99
2023-01-08T10:49:34.349Z,99.99
2023-01-08T10:50:34.348Z,99.45
2023-01-08T10:51:34.314Z,99.99
2023-01-08T10:52:34.303Z,99.45
2023-01-08T10:53:34.286Z,99.15
2023-01-08T10:54:34.278Z,99.55
2023-01-08T10:55:34.274Z,99.55
2023-01-08T10:56:34.247Z,99.35
2023-01-08T10:57:34.232Z,98.83
2023-01-08T10:58:34.227Z,98.63
2023-01-08T10:59:34.199Z,98.43
2023-01-08T11:00:34.871Z,98.63
2023-01-08T11:01:34.217Z,98.53
2023-01-08T11:02:37.208Z,98.43
2023-01-08T11:03:34.182Z,98.22
2023-01-08T11:04:34.141Z,98.53
2023-01-08T11:05:34.154Z,98.83
2023-01-08T11:06:34.115Z,99.04
2023-01-08T11:07:34.107Z,98.58
2023-01-08T11:08:34.099Z,98.83
2023-01-08T11:09:34.165Z,98.68
2023-01-08T11:10:34.076Z,98.78
2023-01-08T11:11:34.036Z,98.88
2023-01-08T11:12:34.110Z,99.09
2023-01-08T11:13:34.025Z,99.50
2023-01-08T11:14:34.037Z,99.29
2023-01-08T11:15:34.008Z,99.19
2023-01-08T11:16:34.033Z,98.47
2023-01-08T11:17:33.971Z,98.58
2023-01-08T11:18:33.956Z,99.19
2023-01-08T11:19:33.955Z,98.68
2023-01-08T11:20:33.940Z,98.88
2023-01-08T11:21:33.914Z,98.88
2023-01-08T11:22:33.916Z,97.86
2023-01-08T11:23:34.058Z,98.47
2023-01-08T11:24:33.906Z,98.99
2023-01-08T11:25:33.880Z,98.88
2023-01-08T11:26:33.856Z,97.86
2023-01-08T11:27:33.840Z,98.43
2023-01-08T11:28:33.824Z,98.63
2023-01-08T11:29:33.805Z,98.02
2023-01-08T11:30:33.805Z,97.81
2023-01-08T11:31:33.904Z,98.53
2023-01-08T11:32:33.772Z,98.74
2023-01-08T11:33:33.754Z,98.43
2023-01-08T11:34:33.743Z,98.74
2023-01-08T11:35:33.725Z,98.94
2023-01-08T11:36:35.200Z,98.33
2023-01-08T11:37:33.695Z,98.43
2023-01-08T11:38:33.693Z,98.43
2023-01-08T11:39:33.675Z,97.81
2023-01-08T11:40:33.680Z,98.02
2023-01-08T11:41:33.644Z,98.33
2023-01-08T11:42:33.666Z,97.61
2023-01-08T11:43:33.640Z,97.50
2023-01-08T11:44:33.608Z,97.91
2023-01-08T11:45:33.616Z,97.66
2023-01-08T11:46:33.593Z,97.30
2023-01-08T11:47:33.574Z,97.36
2023-01-08T11:48:33.595Z,97.97
2023-01-08T11:49:33.547Z,97.46
2023-01-08T11:50:33.543Z,97.36
2023-01-08T11:51:33.528Z,97.36
2023-01-08T11:52:33.522Z,96.84
2023-01-08T11:53:33.509Z,96.54
2023-01-08T11:54:33.483Z,96.84
2023-01-08T11:55:33.478Z,96.23
2023-01-08T11:56:33.449Z,95.92
2023-01-08T11:57:33.455Z,96.03
2023-01-08T11:58:33.440Z,96.03
2023-01-08T11:59:33.405Z,95.92
2023-01-08T12:00:33.416Z,96.23
2023-01-08T12:01:33.404Z,95.72
2023-01-08T12:02:33.480Z,95.72
2023-01-08T12:03:33.428Z,95.21
2023-01-08T12:04:33.386Z,95.31
2023-01-08T12:05:33.351Z,95.26
2023-01-08T12:06:33.759Z,95.51
2023-01-08T12:07:33.306Z,95.82
2023-01-08T12:08:33.311Z,96.13
2023-01-08T12:09:33.287Z,95.92
2023-01-08T12:10:33.288Z,95.62
2023-01-08T12:11:33.272Z,95.31
2023-01-08T12:12:33.266Z,95.26
2023-01-08T12:13:33.221Z,95.67
2023-01-08T12:14:33.211Z,95.47
2023-01-08T12:15:33.210Z,95.88
2023-01-08T12:16:33.253Z,94.96
2023-01-08T12:17:33.189Z,95.17
2023-01-08T12:18:33.182Z,95.06
2023-01-08T12:19:33.142Z,95.67
2023-01-08T12:20:33.204Z,94.75
2023-01-08T12:21:33.163Z,94.96
2023-01-08T12:22:33.130Z,95.17
2023-01-08T12:23:33.107Z,94.96
2023-01-08T12:24:33.082Z,94.85
2023-01-08T12:25:33.093Z,94.85
2023-01-08T12:26:33.072Z,94.55
2023-01-08T12:27:55.265Z,94.34
2023-01-08T12:28:34.038Z,94.45
2023-01-08T12:29:33.020Z,94.55
2023-01-08T12:30:33.020Z,94.75
2023-01-08T12:31:33.043Z,94.14
2023-01-08T12:32:32.999Z,93.73
2023-01-08T12:33:32.977Z,94.34
2023-01-08T12:34:32.997Z,94.45
2023-01-08T12:35:33.027Z,94.34
2023-01-08T12:36:33.059Z,93.73
2023-01-08T12:37:32.962Z,94.14
2023-01-08T12:38:32.906Z,94.24
2023-01-08T12:39:32.923Z,94.14
2023-01-08T12:40:32.962Z,94.34
2023-01-08T12:41:32.894Z,94.55
2023-01-08T12:42:32.868Z,93.84
2023-01-08T12:43:32.974Z,93.43
2023-01-08T12:44:32.829Z,93.84
2023-01-08T12:45:32.912Z,94.45
2023-01-08T12:46:32.848Z,93.52
2023-01-08T12:47:32.820Z,94.24
2023-01-08T12:48:32.819Z,94.34
2023-01-08T12:49:32.771Z,93.52
2023-01-08T12:50:32.791Z,93.32
2023-01-08T12:51:32.776Z,93.63
2023-01-08T12:52:32.733Z,93.73